Time;durP1;ratioP1;P1;durP2;ratioP2;P2;SDS_P1;SDS_P2;PMS_P1;PMS_P2;Temp;Humidity;BMP_temperature;BMP_pressure;BME280_temperature;BME280_humidity;BME280_pressure;Samples;Min_cycle;Max_cycle;Signal;HPM_P1;HPM_P2
2022/08/14 00:00:16;;;;;;;6.72;4.55;;;18.40;66.70;;;;;;5016099;28;20102;-16
2022/08/14 00:02:44;;;;;;;8.32;5.22;;;18.50;66.90;;;;;;5014741;28;20014;-15
2022/08/14 00:05:13;;;;;;;8.48;5.53;;;18.40;67.10;;;;;;5015976;28;20033;-16
2022/08/14 00:07:40;;;;;;;8.05;4.78;;;18.40;67.40;;;;;;5015675;28;20525;-15
2022/08/14 00:10:09;;;;;;;7.15;4.88;;;18.40;67.50;;;;;;5016088;28;20029;-15
2022/08/14 00:12:40;;;;;;;6.28;4.43;;;18.40;68.20;;;;;;5015781;28;20494;-14
2022/08/14 00:15:17;;;;;;;5.05;4.00;;;18.40;67.80;;;;;;5015608;28;20034;-15
2022/08/14 00:17:44;;;;;;;4.82;3.58;;;18.30;67.80;;;;;;5015621;28;20030;-16
2022/08/14 00:20:11;;;;;;;5.95;4.72;;;18.30;67.70;;;;;;5015650;28;20029;-15
2022/08/14 00:22:37;;;;;;;5.93;4.32;;;18.40;67.90;;;;;;5015905;28;20036;-14
2022/08/14 00:25:07;;;;;;;4.68;3.58;;;18.40;67.70;;;;;;5015590;28;20022;-14
2022/08/14 00:27:34;;;;;;;5.63;4.20;;;18.40;67.70;;;;;;5014171;28;20481;-14
2022/08/14 00:30:00;;;;;;;5.80;4.15;;;18.40;67.80;;;;;;5015855;28;20097;-15
2022/08/14 00:32:26;;;;;;;5.60;4.32;;;18.40;67.90;;;;;;5015667;28;20076;-16
2022/08/14 00:34:52;;;;;;;5.75;4.20;;;18.30;67.80;;;;;;5015109;28;20030;-15
2022/08/14 00:37:18;;;;;;;5.32;4.22;;;18.30;68.10;;;;;;5015461;28;20045;-16
2022/08/14 00:39:44;;;;;;;5.60;4.40;;;18.30;67.90;;;;;;5015715;28;20100;-15
2022/08/14 00:42:10;;;;;;;5.40;4.22;;;18.30;68.00;;;;;;5014980;28;20030;-15
2022/08/14 00:44:36;;;;;;;5.88;4.20;;;18.20;68.50;;;;;;5015154;28;20026;-15
2022/08/14 00:47:08;;;;;;;8.13;4.63;;;18.20;68.40;;;;;;5014331;28;20024;-16
2022/08/14 00:49:35;;;;;;;7.78;5.10;;;18.20;68.60;;;;;;5015276;28;20033;-14
2022/08/14 00:52:04;;;;;;;7.75;5.50;;;18.20;69.00;;;;;;5015328;28;20026;-15
2022/08/14 00:54:30;;;;;;;6.95;5.47;;;18.20;69.00;;;;;;5014843;28;20144;-15
2022/08/14 00:56:57;;;;;;;9.95;5.63;;;18.10;68.80;;;;;;5014867;28;20068;-15
2022/08/14 00:59:27;;;;;;;7.53;4.82;;;18.00;69.00;;;;;;5013670;28;20022;-15
2022/08/14 01:01:59;;;;;;;5.03;4.07;;;18.00;69.00;;;;;;5014762;28;20467;-15
2022/08/14 01:04:27;;;;;;;6.30;4.45;;;18.00;69.00;;;;;;5013539;28;20088;-15
2022/08/14 01:06:53;;;;;;;9.00;5.13;;;18.00;68.90;;;;;;5014272;28;20046;-15
2022/08/14 01:09:23;;;;;;;6.80;5.28;;;18.00;69.40;;;;;;5014493;28;20033;-15
2022/08/14 01:11:51;;;;;;;7.75;4.85;;;18.00;69.70;;;;;;5014869;28;20030;-16
2022/08/14 01:14:17;;;;;;;8.80;5.63;;;17.90;69.90;;;;;;5014736;28;20029;-14
2022/08/14 01:16:44;;;;;;;8.07;5.95;;;17.90;69.40;;;;;;5013341;28;20518;-16
2022/08/14 01:21:55;;;;;;;8.15;5.82;;;17.90;69.70;;;;;;5014942;28;20041;-15
2022/08/14 01:24:22;;;;;;;8.23;5.88;;;17.80;69.80;;;;;;5014436;28;20029;-15
2022/08/14 01:26:50;;;;;;;6.53;4.88;;;17.70;70.00;;;;;;5014058;28;20172;-15
2022/08/14 01:29:18;;;;;;;10.38;6.97;;;17.70;70.00;;;;;;5014678;28;20080;-15
2022/08/14 01:31:51;;;;;;;7.40;6.00;;;17.70;70.20;;;;;;5014794;28;20044;-15
2022/08/14 01:34:19;;;;;;;7.20;4.35;;;17.60;70.50;;;;;;5014217;28;20497;-16
2022/08/14 01:36:45;;;;;;;7.20;5.20;;;17.60;70.50;;;;;;5014226;28;20562;-14
2022/08/14 01:39:13;;;;;;;7.63;5.50;;;17.60;70.50;;;;;;5014009;28;20030;-15
2022/08/14 01:41:42;;;;;;;8.18;5.72;;;17.60;71.10;;;;;;5014413;28;20026;-15
2022/08/14 01:44:14;;;;;;;8.25;5.80;;;17.60;71.40;;;;;;5014041;28;20022;-15
2022/08/14 01:46:43;;;;;;;8.77;5.82;;;17.60;71.60;;;;;;5014082;28;20108;-14
2022/08/14 01:49:13;;;;;;;9.43;5.47;;;17.60;71.90;;;;;;5013868;28;20041;-14
2022/08/14 01:51:40;;;;;;;8.20;5.75;;;17.60;71.60;;;;;;5014285;28;20596;-15
2022/08/14 01:54:12;;;;;;;7.68;5.68;;;17.50;71.80;;;;;;5014137;28;20117;-15
2022/08/14 01:56:39;;;;;;;7.10;5.13;;;17.50;71.80;;;;;;5014098;28;20116;-15
2022/08/14 01:59:07;;;;;;;11.07;7.13;;;17.50;71.60;;;;;;5013844;28;20084;-14
2022/08/14 02:01:35;;;;;;;9.82;6.30;;;17.50;71.70;;;;;;5014185;28;20026;-14
2022/08/14 02:04:04;;;;;;;8.45;6.43;;;17.40;71.70;;;;;;5013715;28;20032;-15
2022/08/14 02:06:30;;;;;;;7.63;5.40;;;17.40;71.90;;;;;;5013854;28;20049;-15
2022/08/14 02:08:57;;;;;;;10.25;7.65;;;17.40;71.90;;;;;;5013426;28;20034;-15
2022/08/14 02:11:24;;;;;;;8.45;5.40;;;17.40;72.20;;;;;;5013644;28;20046;-15
2022/08/14 02:14:03;;;;;;;7.90;4.82;;;17.40;72.00;;;;;;5013803;28;20072;-14
2022/08/14 02:16:32;;;;;;;7.07;5.18;;;17.40;72.00;;;;;;5013574;28;20034;-16
2022/08/14 02:19:01;;;;;;;7.90;5.80;;;17.30;71.90;;;;;;5013566;28;20087;-15
2022/08/14 02:21:31;;;;;;;7.55;5.38;;;17.30;72.60;;;;;;5014198;28;20026;-15
2022/08/14 02:24:00;;;;;;;11.73;7.18;;;17.20;72.70;;;;;;5013794;28;20096;-15
2022/08/14 02:26:30;;;;;;;10.60;7.35;;;17.20;72.40;;;;;;5013741;28;20033;-15
2022/08/14 02:29:03;;;;;;;10.45;6.00;;;17.20;72.90;;;;;;5013160;28;20026;-16
2022/08/14 02:31:35;;;;;;;7.95;5.28;;;17.10;72.90;;;;;;5013455;28;20132;-15
2022/08/14 02:34:09;;;;;;;7.28;5.22;;;17.10;72.70;;;;;;5013322;28;20037;-14
2022/08/14 02:36:39;;;;;;;7.20;5.18;;;17.10;72.50;;;;;;5013589;28;20081;-14
2022/08/14 02:39:06;;;;;;;8.60;5.65;;;17.10;72.50;;;;;;5013083;28;20474;-16
2022/08/14 02:41:34;;;;;;;7.63;5.35;;;17.10;73.00;;;;;;5013524;28;20105;-15
2022/08/14 02:44:00;;;;;;;6.85;5.40;;;17.00;73.00;;;;;;5013190;28;20063;-15
2022/08/14 02:46:27;;;;;;;7.75;5.32;;;17.00;73.50;;;;;;5013389;28;20026;-16
2022/08/14 02:48:54;;;;;;;7.55;5.30;;;16.90;73.30;;;;;;5012998;28;20088;-15
2022/08/14 02:51:20;;;;;;;8.43;5.50;;;16.90;73.40;;;;;;5013660;28;20029;-15
2022/08/14 02:53:46;;;;;;;6.93;4.72;;;16.80;73.50;;;;;;5013040;28;20109;-15
2022/08/14 02:56:15;;;;;;;7.95;5.30;;;16.70;73.40;;;;;;5011945;28;20118;-15
2022/08/14 02:58:47;;;;;;;7.82;5.18;;;16.60;73.50;;;;;;5013436;28;20044;-16
2022/08/14 03:01:15;;;;;;;7.82;5.55;;;16.50;73.70;;;;;;5013620;28;20080;-15
2022/08/14 03:03:42;;;;;;;8.07;5.60;;;16.50;73.70;;;;;;5013082;28;20508;-15
2022/08/14 03:06:10;;;;;;;10.57;5.97;;;16.50;73.90;;;;;;5012882;28;20037;-15
2022/08/14 03:08:39;;;;;;;7.40;5.65;;;16.50;74.10;;;;;;5013041;28;20463;-16
2022/08/14 03:11:08;;;;;;;9.52;5.97;;;16.50;74.60;;;;;;5014481;28;20025;-15
2022/08/14 03:13:36;;;;;;;11.73;7.80;;;16.40;74.60;;;;;;5016905;28;20368;-14
2022/08/14 03:16:04;;;;;;;10.07;6.82;;;16.40;74.40;;;;;;5017173;28;20032;-15
2022/08/14 03:18:31;;;;;;;13.38;9.50;;;16.40;74.60;;;;;;5017035;28;20082;-15
2022/08/14 03:20:59;;;;;;;10.65;7.72;;;16.40;74.70;;;;;;5016814;28;20029;-15
2022/08/14 03:23:25;;;;;;;13.57;8.55;;;16.40;75.00;;;;;;5016984;28;20052;-16
2022/08/14 03:25:51;;;;;;;7.88;5.82;;;16.40;75.00;;;;;;5016948;28;20096;-16
2022/08/14 03:28:17;;;;;;;9.07;5.57;;;16.40;75.30;;;;;;5016531;28;20466;-15
2022/08/14 03:30:43;;;;;;;7.13;5.57;;;16.40;75.30;;;;;;5016677;28;20029;-16
2022/08/14 03:33:11;;;;;;;9.25;6.45;;;16.40;75.00;;;;;;5016483;28;20033;-15
2022/08/14 03:35:41;;;;;;;8.40;5.97;;;16.40;75.30;;;;;;5016384;28;20482;-15
2022/08/14 03:38:12;;;;;;;8.88;6.30;;;16.40;75.10;;;;;;5016483;28;20486;-15
2022/08/14 03:40:40;;;;;;;7.70;5.28;;;16.30;75.30;;;;;;5016649;28;20026;-14
2022/08/14 03:43:08;;;;;;;7.65;5.05;;;16.30;75.10;;;;;;5016050;28;20029;-15
2022/08/14 03:45:36;;;;;;;8.05;5.60;;;16.30;75.20;;;;;;5016228;28;20033;-15
2022/08/14 03:48:14;;;;;;;7.45;5.30;;;16.20;75.20;;;;;;5016539;28;20036;-17
2022/08/14 03:50:43;;;;;;;5.93;4.90;;;16.20;75.30;;;;;;5016257;28;20030;-14
2022/08/14 03:53:12;;;;;;;8.50;5.78;;;16.20;75.40;;;;;;5014691;28;20432;-14
2022/08/14 03:55:38;;;;;;;6.82;5.20;;;16.10;75.30;;;;;;5015911;28;20565;-15
2022/08/14 03:58:08;;;;;;;8.00;5.55;;;16.10;75.30;;;;;;5016258;28;20025;-16
2022/08/14 04:00:36;;;;;;;8.23;5.78;;;16.00;75.60;;;;;;5015803;28;20084;-15
2022/08/14 04:03:04;;;;;;;8.00;5.38;;;15.90;75.50;;;;;;5015611;28;20037;-16
2022/08/14 04:05:32;;;;;;;7.55;5.97;;;15.90;75.60;;;;;;5016203;28;20045;-16
2022/08/14 04:07:58;;;;;;;8.73;6.47;;;15.90;75.80;;;;;;5015766;28;20077;-14
2022/08/14 04:10:25;;;;;;;8.70;6.10;;;15.90;76.10;;;;;;5015997;28;20120;-15
2022/08/14 04:12:51;;;;;;;8.77;5.80;;;15.80;76.00;;;;;;5015414;28;20026;-14
2022/08/14 04:15:18;;;;;;;7.75;6.03;;;15.80;76.10;;;;;;5015637;28;20501;-16
2022/08/14 04:17:45;;;;;;;7.45;6.03;;;15.70;76.30;;;;;;5016037;28;20025;-15
2022/08/14 04:20:11;;;;;;;10.82;6.03;;;15.70;76.30;;;;;;5015783;28;20032;-15
2022/08/14 04:22:42;;;;;;;5.75;4.63;;;15.70;76.50;;;;;;5014618;28;20022;-15
2022/08/14 04:25:09;;;;;;;10.52;8.13;;;15.70;76.40;;;;;;5015363;28;20092;-15
2022/08/14 04:27:36;;;;;;;11.13;7.15;;;15.60;76.90;;;;;;5015840;28;20498;-16
2022/08/14 04:30:05;;;;;;;8.48;6.10;;;15.60;77.00;;;;;;5015445;28;20026;-17
2022/08/14 04:32:32;;;;;;;10.38;7.43;;;15.60;76.90;;;;;;5015647;28;20033;-15
2022/08/14 04:35:01;;;;;;;9.70;7.35;;;15.60;77.20;;;;;;5015105;28;20109;-15
2022/08/14 04:45:43;;;;;;;11.15;7.45;;;15.70;77.50;;;;;;5015679;28;20096;-14
2022/08/14 04:48:11;;;;;;;9.73;7.07;;;15.70;77.30;;;;;;5015353;28;20470;-14
2022/08/14 04:50:46;;;;;;;10.20;8.15;;;15.80;77.40;;;;;;5015380;28;20029;-15
2022/08/14 04:53:18;;;;;;;11.90;8.68;;;15.80;78.40;;;;;;5015564;28;20029;-15
2022/08/14 04:55:47;;;;;;;13.40;9.07;;;15.90;79.10;;;;;;5014862;28;20021;-16
2022/08/14 04:58:17;;;;;;;15.10;10.45;;;16.00;79.40;;;;;;5015094;28;20025;-16
2022/08/14 05:00:49;;;;;;;14.43;10.07;;;16.10;82.40;;;;;;5014915;28;20490;-15
2022/08/14 05:03:23;;;;;;;11.95;8.50;;;16.20;81.70;;;;;;5014857;28;20037;-16
2022/08/14 05:05:52;;;;;;;15.32;10.48;;;16.30;79.90;;;;;;5013567;28;20087;-17
2022/08/14 05:08:19;;;;;;;14.38;10.27;;;16.40;79.60;;;;;;5014635;28;20057;-14
2022/08/14 05:10:52;;;;;;;11.35;8.30;;;16.40;79.90;;;;;;5014865;28;20034;-13
2022/08/14 05:13:20;;;;;;;11.40;8.63;;;16.60;78.80;;;;;;5013516;28;20018;-14
2022/08/14 05:15:46;;;;;;;15.10;10.98;;;16.70;77.70;;;;;;5014817;28;20038;-14
2022/08/14 05:18:18;;;;;;;13.60;10.00;;;16.90;78.30;;;;;;5014549;28;20034;-13
2022/08/14 05:20:47;;;;;;;14.77;11.60;;;17.00;77.50;;;;;;5014506;28;20038;-15
2022/08/14 05:23:19;;;;;;;13.75;8.82;;;17.20;79.10;;;;;;5014444;28;20377;-13
2022/08/14 05:25:46;;;;;;;11.00;8.38;;;17.40;78.40;;;;;;5014850;28;20470;-16
2022/08/14 05:28:18;;;;;;;10.65;8.18;;;17.50;77.20;;;;;;5014278;28;20032;-14
2022/08/14 05:31:05;;;;;;;11.52;8.27;;;17.70;76.00;;;;;;5014696;28;20026;-14
2022/08/14 05:33:33;;;;;;;9.98;7.60;;;17.90;75.70;;;;;;5013814;28;20026;-16
2022/08/14 05:36:01;;;;;;;9.73;7.80;;;17.90;75.40;;;;;;5014198;28;20034;-14
2022/08/14 05:38:34;;;;;;;15.13;10.48;;;18.10;75.00;;;;;;5014512;28;20237;-14
2022/08/14 05:41:04;;;;;;;13.93;9.48;;;18.20;74.60;;;;;;5013998;28;20053;-15
2022/08/14 05:43:30;;;;;;;14.55;9.77;;;18.40;73.90;;;;;;5014188;28;20382;-14
2022/08/14 05:45:58;;;;;;;11.52;8.73;;;18.50;73.40;;;;;;5014013;28;20566;-15
2022/08/14 05:48:24;;;;;;;17.92;12.57;;;18.70;73.10;;;;;;5013997;28;20509;-14
2022/08/14 05:50:53;;;;;;;14.50;10.52;;;18.90;78.00;;;;;;5013726;28;20014;-15
2022/08/14 05:53:24;;;;;;;13.30;10.50;;;19.20;75.10;;;;;;5014194;28;20061;-14
2022/08/14 05:55:52;;;;;;;12.75;9.13;;;19.40;74.40;;;;;;5014124;28;20133;-15
2022/08/14 05:58:19;;;;;;;10.65;8.27;;;19.60;73.10;;;;;;5013770;28;20474;-15
2022/08/14 06:00:45;;;;;;;9.25;7.30;;;19.80;72.00;;;;;;5013874;28;20028;-14
2022/08/14 06:03:15;;;;;;;13.48;10.43;;;19.90;71.40;;;;;;5013527;28;20026;-15
2022/08/14 06:05:43;;;;;;;10.93;8.10;;;20.10;71.40;;;;;;5013708;28;20026;-14
2022/08/14 06:08:30;;;;;;;10.13;8.27;;;20.40;70.30;;;;;;5013489;28;20093;-14
2022/08/14 06:11:01;;;;;;;20.42;17.70;;;20.60;70.10;;;;;;5013498;28;20402;-15
2022/08/14 06:13:29;;;;;;;15.55;9.70;;;20.70;69.10;;;;;;5013901;28;20068;-16
2022/08/14 06:15:56;;;;;;;15.05;10.25;;;20.80;68.60;;;;;;5013825;28;20046;-16
2022/08/14 06:18:22;;;;;;;13.43;9.82;;;20.90;68.30;;;;;;5013612;28;20026;-15
2022/08/14 06:20:48;;;;;;;9.95;7.57;;;21.00;68.10;;;;;;5013560;28;20080;-14
2022/08/14 06:23:13;;;;;;;9.52;6.70;;;21.00;68.40;;;;;;5012383;28;20534;-15
2022/08/14 06:25:41;;;;;;;9.57;6.15;;;21.10;67.70;;;;;;5013464;28;20136;-15
2022/08/14 06:28:06;;;;;;;8.55;6.38;;;21.20;67.00;;;;;;5013322;28;20029;-15
2022/08/14 06:30:34;;;;;;;12.40;8.80;;;21.30;66.70;;;;;;5013641;28;20030;-16
2022/08/14 06:33:00;;;;;;;9.80;7.00;;;21.40;66.20;;;;;;5013131;28;20525;-16
2022/08/14 06:35:26;;;;;;;10.98;7.72;;;21.60;66.30;;;;;;5013559;28;20031;-15
2022/08/14 06:37:55;;;;;;;12.27;9.38;;;21.70;65.90;;;;;;5013579;28;20046;-15
2022/08/14 06:40:22;;;;;;;11.18;8.43;;;21.90;65.40;;;;;;5013282;28;20022;-15
2022/08/14 06:42:49;;;;;;;11.43;8.93;;;22.20;65.10;;;;;;5013228;28;20037;-15
2022/08/14 06:45:16;;;;;;;11.55;8.27;;;22.40;63.90;;;;;;5013333;28;20030;-15
2022/08/14 06:47:44;;;;;;;9.77;7.43;;;22.70;63.00;;;;;;5017654;28;20417;-15
2022/08/14 06:50:15;;;;;;;10.73;7.68;;;22.90;62.20;;;;;;5017711;28;20430;-16
2022/08/14 06:52:42;;;;;;;10.63;7.60;;;23.00;61.50;;;;;;5017271;28;20112;-15
2022/08/14 06:55:11;;;;;;;13.23;7.88;;;23.20;61.30;;;;;;5015721;28;20256;-15
2022/08/14 06:57:38;;;;;;;11.00;6.38;;;23.30;61.00;;;;;;5017473;28;20029;-15
2022/08/14 07:00:19;;;;;;;8.05;5.18;;;23.50;60.40;;;;;;5017161;28;20040;-16
2022/08/14 07:05:47;;;;;;;8.50;4.30;;;23.90;59.40;;;;;;5017378;28;20084;-14
2022/08/14 07:08:16;;;;;;;5.60;4.50;;;24.10;59.00;;;;;;5016775;28;20160;-14
2022/08/14 07:10:50;;;;;;;5.90;4.40;;;24.40;58.10;;;;;;5016913;28;20030;-15
2022/08/14 07:13:18;;;;;;;7.68;4.97;;;24.60;56.70;;;;;;5017129;28;20033;-14
2022/08/14 07:15:47;;;;;;;7.65;4.50;;;24.80;56.10;;;;;;5017115;28;20037;-13
2022/08/14 07:18:14;;;;;;;8.02;5.25;;;24.90;55.50;;;;;;5016790;28;20438;-14
2022/08/14 07:20:40;;;;;;;5.93;4.95;;;25.00;55.30;;;;;;5015559;28;20549;-16
2022/08/14 07:23:08;;;;;;;7.75;4.88;;;25.20;54.90;;;;;;5016911;28;20022;-15
2022/08/14 07:25:40;;;;;;;8.82;4.75;;;25.40;54.10;;;;;;5017111;28;20542;-14
2022/08/14 07:28:15;;;;;;;7.80;5.25;;;25.40;53.80;;;;;;5017051;28;20022;-16
2022/08/14 07:30:41;;;;;;;5.57;4.30;;;25.60;52.90;;;;;;5016694;28;20409;-14
2022/08/14 07:33:08;;;;;;;7.93;5.70;;;25.80;52.90;;;;;;5016369;28;20026;-14
2022/08/14 07:35:35;;;;;;;6.60;4.25;;;26.00;53.20;;;;;;5016814;28;20030;-14
2022/08/14 07:38:02;;;;;;;7.57;4.43;;;26.20;52.80;;;;;;5017129;28;20129;-13
2022/08/14 07:40:28;;;;;;;7.90;5.63;;;26.20;52.10;;;;;;5016502;28;20065;-13
2022/08/14 07:42:54;;;;;;;8.50;5.18;;;26.30;51.10;;;;;;5016142;28;20061;-13
2022/08/14 07:45:20;;;;;;;9.02;4.75;;;26.20;50.90;;;;;;5016553;28;20065;-13
2022/08/14 07:47:47;;;;;;;5.78;4.63;;;26.30;51.40;;;;;;5016400;28;20025;-13
2022/08/14 07:50:15;;;;;;;5.70;4.60;;;26.30;51.70;;;;;;5016372;28;20030;-13
2022/08/14 07:52:46;;;;;;;7.57;4.43;;;26.40;51.60;;;;;;5016123;28;20037;-13
2022/08/14 07:55:14;;;;;;;7.05;4.57;;;26.60;51.40;;;;;;5016264;28;20072;-14
2022/08/14 07:57:46;;;;;;;7.68;4.18;;;26.80;51.30;;;;;;5015936;28;20029;-14
2022/08/14 08:00:21;;;;;;;7.28;4.72;;;27.00;50.80;;;;;;5016375;28;20022;-13
2022/08/14 08:02:50;;;;;;;4.15;3.75;;;27.20;49.90;;;;;;5016118;28;20373;-15
2022/08/14 08:05:18;;;;;;;4.65;4.03;;;27.30;50.10;;;;;;5016677;28;20022;-14
2022/08/14 08:07:45;;;;;;;6.65;4.43;;;27.40;49.40;;;;;;5015851;28;20041;-14
2022/08/14 08:10:29;;;;;;;9.02;4.55;;;27.70;49.60;;;;;;5016017;28;20089;-14
2022/08/14 08:13:01;;;;;;;4.05;3.65;;;27.90;48.50;;;;;;5015842;28;20084;-14
2022/08/14 08:15:31;;;;;;;3.88;3.30;;;28.10;48.30;;;;;;5015729;28;20385;-14
2022/08/14 08:18:03;;;;;;;6.40;4.10;;;28.40;47.80;;;;;;5015711;28;20405;-14
2022/08/14 08:20:32;;;;;;;4.80;3.35;;;28.60;46.60;;;;;;5015997;28;20018;-15
2022/08/14 08:22:59;;;;;;;4.40;3.83;;;28.90;46.10;;;;;;5015465;28;20034;-14
2022/08/14 08:25:28;;;;;;;4.20;2.90;;;29.20;45.60;;;;;;5015810;28;20513;-14
2022/08/14 08:27:57;;;;;;;6.25;3.45;;;29.40;44.00;;;;;;5015508;28;20122;-14
2022/08/14 08:30:23;;;;;;;3.88;3.10;;;29.70;42.90;;;;;;5015792;28;20030;-14
2022/08/14 08:32:51;;;;;;;3.50;3.20;;;29.90;42.50;;;;;;5015249;28;20029;-13
2022/08/14 08:35:24;;;;;;;3.20;2.90;;;30.10;41.40;;;;;;5015282;28;20033;-14
2022/08/14 08:37:52;;;;;;;3.75;3.05;;;30.20;41.30;;;;;;5016147;28;20021;-14
2022/08/14 08:40:27;;;;;;;3.30;3.00;;;30.40;41.10;;;;;;5015461;28;20036;-13
2022/08/14 08:42:53;;;;;;;3.90;2.80;;;30.60;40.70;;;;;;5014862;28;20026;-14
2022/08/14 08:45:21;;;;;;;4.43;3.20;;;30.70;40.50;;;;;;5016136;28;20071;-14
2022/08/14 08:47:49;;;;;;;4.00;3.10;;;30.70;39.70;;;;;;5015513;28;20036;-14
2022/08/14 08:50:19;;;;;;;3.28;2.88;;;30.60;39.30;;;;;;5015422;28;20124;-14
2022/08/14 08:52:52;;;;;;;3.38;3.08;;;30.50;39.70;;;;;;5015157;28;20030;-14
2022/08/14 08:55:40;;;;;;;4.82;3.10;;;30.50;39.80;;;;;;5015045;28;20037;-14
2022/08/14 08:58:08;;;;;;;2.97;2.78;;;30.60;39.90;;;;;;5014820;28;20524;-13
2022/08/14 09:00:38;;;;;;;4.93;3.00;;;30.70;40.10;;;;;;5015088;28;20033;-14
2022/08/14 09:03:07;;;;;;;3.58;2.72;;;31.00;39.20;;;;;;5014722;28;20054;-13
2022/08/14 09:05:35;;;;;;;4.72;3.28;;;31.40;38.80;;;;;;5014875;28;20509;-14
2022/08/14 09:08:17;;;;;;;6.72;3.30;;;31.70;37.70;;;;;;5014234;28;20536;-13
2022/08/14 09:10:43;;;;;;;2.90;2.58;;;31.80;37.10;;;;;;5014999;28;20048;-13
2022/08/14 09:13:11;;;;;;;6.35;3.08;;;31.70;37.30;;;;;;5014343;28;20033;-13
2022/08/14 09:15:44;;;;;;;4.22;2.80;;;31.50;37.40;;;;;;5014492;28;20026;-14
2022/08/14 09:18:10;;;;;;;;;;;31.60;35.60;;;;;;5015027;28;20034;-14
2022/08/14 09:20:41;;;;;;;6.18;3.20;;;31.90;35.70;;;;;;5014865;28;19959;-13
2022/08/14 09:23:11;;;;;;;3.33;2.90;;;32.10;35.20;;;;;;5014581;28;20041;-12
2022/08/14 09:25:43;;;;;;;5.00;2.97;;;32.00;35.10;;;;;;5014466;28;20049;-14
2022/08/14 09:28:10;;;;;;;4.40;2.92;;;31.80;35.50;;;;;;5014606;28;20025;-14
2022/08/14 09:30:43;;;;;;;3.40;3.10;;;31.50;36.20;;;;;;5014271;28;20034;-14
2022/08/14 09:33:31;;;;;;;5.22;3.05;;;31.60;36.00;;;;;;5014440;28;20049;-13
2022/08/14 09:36:16;;;;;;;5.45;2.78;;;32.00;35.00;;;;;;5014475;28;20029;-13
2022/08/14 09:38:48;;;;;;;3.13;2.83;;;32.10;34.80;;;;;;5014408;28;20033;-13
2022/08/14 09:41:38;;;;;;;5.30;2.50;;;32.00;35.20;;;;;;5014165;28;20061;-13
2022/08/14 09:44:28;;;;;;;4.25;2.60;;;32.10;35.10;;;;;;5014101;28;20046;-14
2022/08/14 09:46:56;;;;;;;3.13;2.47;;;32.40;34.30;;;;;;5014055;28;20018;-14
2022/08/14 09:49:34;;;;;;;4.30;2.63;;;32.90;33.00;;;;;;5014008;28;20034;-13
2022/08/14 09:52:12;;;;;;;3.05;2.60;;;33.30;32.40;;;;;;5013943;28;20113;-14
2022/08/14 09:54:46;;;;;;;3.30;2.50;;;33.40;32.40;;;;;;5013883;28;20116;-13
2022/08/14 09:57:29;;;;;;;3.25;2.40;;;33.30;32.20;;;;;;5014170;28;20030;-14
2022/08/14 09:59:55;;;;;;;4.18;2.60;;;33.20;32.70;;;;;;5014192;28;20466;-14
2022/08/14 10:02:30;;;;;;;2.50;2.30;;;33.20;32.80;;;;;;5013966;28;20013;-14
2022/08/14 10:05:07;;;;;;;2.55;2.35;;;33.30;32.20;;;;;;5013623;28;20496;-15
2022/08/14 10:07:36;;;;;;;4.18;2.38;;;33.30;32.40;;;;;;5013513;28;20057;-14
2022/08/14 10:10:04;;;;;;;4.93;2.45;;;33.40;31.90;;;;;;5013968;28;20080;-14
2022/08/14 10:12:44;;;;;;;3.67;2.70;;;33.80;31.90;;;;;;5013606;28;20519;-14
2022/08/14 10:15:19;;;;;;;3.03;2.60;;;33.90;32.00;;;;;;5013698;28;20030;-14
2022/08/14 10:17:47;;;;;;;3.10;2.58;;;34.10;31.40;;;;;;5013792;28;20076;-14
2022/08/14 10:20:21;;;;;;;4.50;2.40;;;34.20;31.50;;;;;;5013526;28;20037;-14
2022/08/14 10:22:50;;;;;;;3.83;2.42;;;34.30;31.40;;;;;;5013684;28;20026;-12
2022/08/14 10:25:16;;;;;;;3.13;2.50;;;34.40;31.30;;;;;;5013494;28;20025;-14
2022/08/14 10:27:48;;;;;;;3.88;2.50;;;34.40;30.50;;;;;;5013666;28;20056;-14
2022/08/14 10:30:19;;;;;;;5.22;2.58;;;34.20;30.30;;;;;;5013777;28;20026;-13
2022/08/14 10:32:47;;;;;;;4.78;2.40;;;34.20;30.50;;;;;;5013541;28;20475;-14
2022/08/14 10:35:14;;;;;;;3.05;2.28;;;34.60;30.40;;;;;;5013590;28;20482;-13
2022/08/14 10:37:52;;;;;;;2.63;2.10;;;35.00;30.20;;;;;;5013588;28;20034;-13
2022/08/14 10:40:29;;;;;;;2.55;2.35;;;35.50;28.90;;;;;;5013545;28;20087;-13
2022/08/14 10:42:55;;;;;;;2.60;2.40;;;35.90;27.80;;;;;;5013022;28;20112;-15
2022/08/14 10:45:31;;;;;;;2.47;2.00;;;36.20;28.00;;;;;;5013538;28;20029;-14
2022/08/14 10:47:58;;;;;;;2.58;2.13;;;36.00;28.00;;;;;;5012168;28;20405;-15
2022/08/14 10:50:33;;;;;;;3.35;2.30;;;36.00;28.50;;;;;;5013551;28;20033;-14
2022/08/14 10:53:04;;;;;;;2.33;2.00;;;36.10;28.10;;;;;;5013320;28;20060;-15
2022/08/14 10:55:38;;;;;;;2.30;2.10;;;36.30;28.20;;;;;;5013625;28;20034;-15
2022/08/14 10:58:10;;;;;;;3.42;2.10;;;36.60;28.00;;;;;;5013296;28;20101;-14
2022/08/14 11:00:38;;;;;;;;;;;37.10;27.20;;;;;;5013621;28;20022;-15
2022/08/14 11:03:12;;;;;;;2.42;2.22;;;37.40;26.80;;;;;;5013031;28;20377;-14
2022/08/14 11:05:42;;;;;;;5.10;2.30;;;37.40;26.70;;;;;;5013153;28;20034;-14
2022/08/14 11:08:13;;;;;;;2.63;2.13;;;37.40;26.80;;;;;;5012792;28;20057;-13
2022/08/14 11:10:42;;;;;;;2.50;2.28;;;37.60;26.90;;;;;;5013460;28;20038;-14
2022/08/14 11:13:09;;;;;;;5.63;2.28;;;38.00;26.10;;;;;;5012732;28;20034;-14
2022/08/14 11:15:35;;;;;;;3.00;2.28;;;38.10;25.70;;;;;;5013492;28;20072;-14
2022/08/14 11:18:02;;;;;;;3.17;2.00;;;38.00;25.80;;;;;;5013304;28;20026;-14
2022/08/14 11:20:30;;;;;;;2.20;2.00;;;38.20;25.90;;;;;;5013171;28;20022;-14
2022/08/14 11:22:59;;;;;;;2.30;2.13;;;38.40;25.40;;;;;;5012851;28;20512;-14
2022/08/14 11:25:30;;;;;;;3.28;2.20;;;38.70;24.60;;;;;;5012904;28;20030;-14
2022/08/14 11:27:58;;;;;;;3.22;2.30;;;38.90;24.80;;;;;;5013225;28;20030;-14
2022/08/14 11:30:27;;;;;;;4.15;2.60;;;39.20;24.40;;;;;;5012866;28;20029;-13
2022/08/14 11:32:53;;;;;;;1.90;1.65;;;39.30;23.90;;;;;;5014019;28;20109;-15
2022/08/14 11:35:22;;;;;;;3.83;2.10;;;39.10;24.30;;;;;;5015275;28;20486;-14
2022/08/14 11:37:54;;;;;;;2.08;1.98;;;39.00;24.20;;;;;;5016761;28;20114;-14
2022/08/14 11:40:22;;;;;;;3.40;2.20;;;39.10;23.90;;;;;;5016493;28;20112;-14
2022/08/14 11:42:54;;;;;;;3.25;2.25;;;39.30;23.90;;;;;;5016375;28;20105;-15
2022/08/14 11:45:23;;;;;;;2.10;1.90;;;39.50;23.60;;;;;;5016381;28;20478;-13
2022/08/14 11:47:51;;;;;;;3.35;2.13;;;39.60;23.60;;;;;;5016535;28;20393;-15
2022/08/14 11:50:24;;;;;;;3.22;2.10;;;39.60;23.70;;;;;;5016571;28;20029;-15
2022/08/14 11:52:52;;;;;;;2.80;2.20;;;39.60;23.50;;;;;;5016181;28;20037;-14
2022/08/14 11:55:19;;;;;;;2.10;2.00;;;39.70;23.40;;;;;;5016071;28;20022;-14
2022/08/14 11:57:46;;;;;;;2.22;2.03;;;39.90;23.10;;;;;;5016361;28;20375;-14
2022/08/14 12:00:15;;;;;;;4.35;1.95;;;40.20;23.00;;;;;;5016331;28;20032;-14
2022/08/14 12:02:59;;;;;;;3.65;2.25;;;40.50;22.80;;;;;;5016012;28;20113;-13
2022/08/14 12:05:41;;;;;;;2.58;1.85;;;40.60;22.90;;;;;;5016217;28;20041;-14
2022/08/14 12:08:09;;;;;;;2.35;1.85;;;40.80;22.40;;;;;;5015757;28;20058;-13
2022/08/14 12:10:37;;;;;;;4.88;2.10;;;41.00;22.30;;;;;;5014959;28;20053;-14
2022/08/14 12:13:15;;;;;;;3.13;2.10;;;41.00;22.00;;;;;;5015534;28;20485;-14
2022/08/14 12:15:43;;;;;;;3.38;1.98;;;41.00;22.00;;;;;;5015749;28;20057;-14
2022/08/14 12:18:10;;;;;;;3.53;2.08;;;41.10;21.70;;;;;;5015737;28;20040;-14
2022/08/14 12:20:41;;;;;;;2.35;2.15;;;41.20;21.70;;;;;;5015875;28;20529;-14
2022/08/14 12:23:21;;;;;;;2.63;2.10;;;41.30;21.90;;;;;;5015542;28;20030;-14
2022/08/14 12:25:48;;;;;;;2.50;1.90;;;41.20;21.90;;;;;;5015890;28;20034;-14
2022/08/14 12:28:15;;;;;;;3.13;1.90;;;41.00;21.90;;;;;;5015686;28;20049;-13
2022/08/14 12:30:44;;;;;;;3.13;2.33;;;40.60;22.20;;;;;;5015470;28;20036;-13
2022/08/14 12:33:29;;;;;;;3.47;2.10;;;40.40;22.10;;;;;;5015207;28;20121;-15
2022/08/14 12:35:57;;;;;;;2.13;2.00;;;40.00;22.40;;;;;;5015413;28;20026;-13
2022/08/14 12:38:40;;;;;;;2.67;2.25;;;39.80;23.10;;;;;;5015668;28;20034;-14
2022/08/14 12:41:16;;;;;;;2.13;1.92;;;39.90;23.40;;;;;;5015161;28;20022;-14
2022/08/14 12:43:55;;;;;;;2.95;2.10;;;40.40;22.90;;;;;;5014453;28;20076;-13
2022/08/14 12:46:29;;;;;;;4.68;2.25;;;40.90;21.80;;;;;;5015544;28;20029;-13
2022/08/14 12:48:58;;;;;;;2.53;2.20;;;41.00;21.70;;;;;;5014932;28;20362;-13
2022/08/14 12:51:26;;;;;;;3.78;2.10;;;40.90;22.20;;;;;;5015355;28;20052;-13
2022/08/14 12:53:54;;;;;;;2.67;2.25;;;40.90;22.40;;;;;;5015279;28;20104;-14
2022/08/14 12:56:24;;;;;;;3.78;2.28;;;41.20;21.90;;;;;;5015162;28;20037;-14
2022/08/14 12:58:53;;;;;;;3.90;2.17;;;41.00;22.10;;;;;;5015016;28;20117;-12
2022/08/14 13:01:26;;;;;;;2.80;2.20;;;41.00;21.80;;;;;;5015348;28;20026;-13
2022/08/14 13:04:03;;;;;;;2.40;2.20;;;40.80;21.80;;;;;;5015221;28;20030;-14
2022/08/14 13:06:30;;;;;;;2.53;2.30;;;40.60;22.00;;;;;;5014940;28;20490;-14
2022/08/14 13:08:57;;;;;;;5.32;2.40;;;40.20;22.10;;;;;;5015000;28;20117;-15
2022/08/14 13:11:33;;;;;;;3.35;2.55;;;39.80;22.80;;;;;;5014707;28;20053;-13